Time;durP1;ratioP1;P1;durP2;ratioP2;P2;SDS_P1;SDS_P2;PMS_P1;PMS_P2;Temp;Humidity;BMP_temperature;BMP_pressure;BME280_temperature;BME280_humidity;BME280_pressure;Samples;Min_cycle;Max_cycle;Signal;HPM_P1;HPM_P2
2023/01/26 00:02:19;;;;;;;1999.90;999.90;;;2.10;99.90;;;;;;5007960;28;20960;-66
2023/01/26 00:04:45;;;;;;;1999.90;999.90;;;1.90;99.90;;;;;;5008808;28;20489;-66
2023/01/26 00:07:12;;;;;;;1999.90;999.90;;;1.80;99.90;;;;;;5016417;28;20484;-66
2023/01/26 00:09:39;;;;;;;1999.90;999.90;;;1.80;99.90;;;;;;5009119;28;20453;-67
2023/01/26 00:12:06;;;;;;;1999.90;999.90;;;1.70;99.90;;;;;;5008866;28;20458;-66
2023/01/26 00:14:48;;;;;;;1999.90;999.90;;;1.70;99.90;;;;;;5008029;28;20473;-66
2023/01/26 00:17:24;;;;;;;1999.90;999.90;;;1.60;99.90;;;;;;5009019;28;20879;-66
2023/01/26 00:19:52;;;;;;;1999.90;999.90;;;1.70;99.90;;;;;;5009393;28;20544;-67
2023/01/26 00:22:19;;;;;;;1999.90;999.90;;;1.70;99.90;;;;;;5008510;28;20446;-66
2023/01/26 00:24:46;;;;;;;1999.90;999.90;;;1.70;99.90;;;;;;5009023;28;20488;-67
2023/01/26 00:27:12;;;;;;;1999.90;999.90;;;1.70;99.90;;;;;;5001896;28;21030;-66
2023/01/26 00:29:39;;;;;;;1999.90;999.90;;;1.70;99.90;;;;;;5008803;28;20450;-66
2023/01/26 00:32:06;;;;;;;1999.90;999.90;;;1.80;99.90;;;;;;5008931;28;20445;-66
2023/01/26 00:34:34;;;;;;;1999.90;999.90;;;1.70;99.90;;;;;;5013038;28;20476;-67
2023/01/26 00:37:01;;;;;;;1999.90;999.90;;;1.70;99.90;;;;;;5020076;28;20930;-68
2023/01/26 00:39:28;;;;;;;1999.90;999.90;;;1.70;99.90;;;;;;5029639;28;20994;-66
2023/01/26 00:42:08;;;;;;;1999.90;999.90;;;1.70;99.90;;;;;;5028338;28;20452;-66
2023/01/26 00:44:37;;;;;;;1999.90;999.90;;;1.80;99.90;;;;;;5019507;28;20473;-66
2023/01/26 00:47:04;;;;;;;1999.90;999.90;;;1.80;99.90;;;;;;5008801;28;20486;-67
2023/01/26 00:49:30;;;;;;;1999.90;999.90;;;1.70;99.90;;;;;;4990581;28;20450;-67
2023/01/26 00:51:59;;;;;;;1999.90;999.90;;;1.70;99.90;;;;;;4990264;28;20454;-67
2023/01/26 00:54:25;;;;;;;1999.90;999.90;;;1.70;99.90;;;;;;4990126;28;20482;-66
2023/01/26 00:56:52;;;;;;;1999.90;999.90;;;1.80;99.90;;;;;;4992933;28;20451;-67
2023/01/26 00:59:19;;;;;;;1999.90;999.90;;;1.80;99.90;;;;;;5005400;28;20458;-67
2023/01/26 01:01:46;;;;;;;1999.90;999.90;;;1.80;99.90;;;;;;5006335;28;20457;-67
2023/01/26 01:04:13;;;;;;;1999.90;999.90;;;1.80;99.90;;;;;;5009042;28;20474;-67
2023/01/26 01:06:40;;;;;;;1999.90;999.90;;;1.80;99.90;;;;;;5009401;28;21005;-67
2023/01/26 01:09:08;;;;;;;1999.90;999.90;;;1.70;99.90;;;;;;5008488;28;20454;-66
2023/01/26 01:11:35;;;;;;;1999.90;999.90;;;1.70;99.90;;;;;;5008046;28;20468;-66
2023/01/26 01:14:02;;;;;;;1999.90;999.90;;;1.60;99.90;;;;;;5007862;28;20544;-67
2023/01/26 01:16:29;;;;;;;1999.90;999.90;;;1.60;99.90;;;;;;5003777;28;20446;-67
2023/01/26 01:18:56;;;;;;;1999.90;999.90;;;1.60;99.90;;;;;;4989608;28;20447;-67
2023/01/26 01:21:24;;;;;;;1999.90;999.90;;;1.60;99.90;;;;;;4989582;28;20451;-67
2023/01/26 01:23:50;;;;;;;1999.90;999.90;;;1.60;99.90;;;;;;4989490;28;20469;-67
2023/01/26 01:26:19;;;;;;;1999.90;999.90;;;1.50;99.90;;;;;;4990159;28;20454;-66
2023/01/26 01:28:46;;;;;;;1999.90;999.90;;;1.50;99.90;;;;;;4989701;28;20482;-66
2023/01/26 01:31:14;;;;;;;1999.90;999.90;;;1.50;99.90;;;;;;4999469;28;20450;-66
2023/01/26 01:33:42;;;;;;;1999.90;999.90;;;1.40;99.90;;;;;;4988627;28;20458;-67
2023/01/26 01:36:11;;;;;;;1999.90;999.90;;;1.40;99.90;;;;;;4996112;28;20646;-66
2023/01/26 01:38:38;;;;;;;1999.90;999.90;;;1.40;99.90;;;;;;5005335;28;20442;-67
2023/01/26 01:41:06;;;;;;;1999.90;999.90;;;1.40;99.90;;;;;;5009444;28;20458;-67
2023/01/26 01:43:34;;;;;;;1999.90;999.90;;;1.40;99.90;;;;;;4991956;28;20461;-67
2023/01/26 01:46:03;;;;;;;1999.90;999.90;;;1.40;99.90;;;;;;4989472;28;20450;-67
2023/01/26 01:48:35;;;;;;;1999.90;999.90;;;1.30;99.90;;;;;;5003198;28;20665;-67
2023/01/26 01:51:08;;;;;;;1999.90;999.90;;;1.30;99.90;;;;;;4993308;28;20830;-67
2023/01/26 01:53:39;;;;;;;1999.90;999.90;;;1.30;99.90;;;;;;4989399;28;20446;-66
2023/01/26 01:56:10;;;;;;;1999.90;999.90;;;1.30;99.90;;;;;;4989140;28;20454;-67
2023/01/26 01:58:42;;;;;;;1999.90;999.90;;;1.30;99.90;;;;;;4989555;28;20461;-67
2023/01/26 02:01:10;;;;;;;1999.90;999.90;;;1.30;99.90;;;;;;5000881;28;20450;-66
2023/01/26 02:03:38;;;;;;;1999.90;999.90;;;1.30;99.90;;;;;;5008734;28;20454;-67
2023/01/26 02:06:10;;;;;;;1999.90;999.90;;;1.30;99.90;;;;;;5007502;28;20465;-67
2023/01/26 02:08:40;;;;;;;1999.90;999.90;;;1.30;99.90;;;;;;5008526;28;21052;-67
2023/01/26 02:11:10;;;;;;;1999.90;999.90;;;1.30;99.90;;;;;;4998292;28;20546;-67
2023/01/26 02:13:39;;;;;;;1999.90;999.90;;;1.30;99.90;;;;;;5008080;28;20449;-67
2023/01/26 02:16:06;;;;;;;1999.90;999.90;;;1.30;99.90;;;;;;5009293;28;20446;-67
2023/01/26 02:18:33;;;;;;;1999.90;999.90;;;1.30;99.90;;;;;;5009129;28;20446;-67
2023/01/26 02:21:02;;;;;;;1999.90;999.90;;;1.30;99.90;;;;;;5008184;28;20457;-67
2023/01/26 02:23:49;;;;;;;1999.90;999.90;;;1.30;99.90;;;;;;5004002;28;20985;-67
2023/01/26 02:26:19;;;;;;;1999.90;999.90;;;1.30;99.90;;;;;;5005037;28;20476;-67
2023/01/26 02:28:49;;;;;;;1999.90;999.90;;;1.40;99.90;;;;;;5008675;28;20486;-67
2023/01/26 02:31:17;;;;;;;1999.90;999.90;;;1.30;99.90;;;;;;5003743;28;20451;-67
2023/01/26 02:33:44;;;;;;;1999.90;999.90;;;1.30;99.90;;;;;;4988913;28;20826;-66
2023/01/26 02:36:18;;;;;;;1999.90;999.90;;;1.30;99.90;;;;;;4989799;28;20458;-67
2023/01/26 02:38:53;;;;;;;1999.90;999.90;;;1.30;99.90;;;;;;4996083;28;20449;-66
2023/01/26 02:44:04;;;;;;;1999.90;999.90;;;1.30;99.90;;;;;;5009072;28;20544;-67
2023/01/26 02:46:30;;;;;;;1999.90;999.90;;;1.30;99.90;;;;;;5011446;28;20445;-67
2023/01/26 02:51:41;;;;;;;1999.90;999.90;;;1.20;99.90;;;;;;5012418;28;20429;-67
2023/01/26 02:54:08;;;;;;;1999.90;999.90;;;1.20;99.90;;;;;;5011598;28;20476;-67
2023/01/26 02:56:38;;;;;;;1999.90;999.90;;;1.20;99.90;;;;;;5012426;28;20460;-67
2023/01/26 02:59:05;;;;;;;1999.90;999.90;;;1.20;99.90;;;;;;5012020;28;20452;-67
2023/01/26 03:01:32;;;;;;;1999.90;999.90;;;1.30;99.90;;;;;;5003814;28;20450;-67
2023/01/26 03:03:58;;;;;;;1999.90;999.90;;;1.20;99.90;;;;;;4992240;28;20477;-67
2023/01/26 03:06:25;;;;;;;1999.90;999.90;;;1.20;99.90;;;;;;4992168;28;20454;-67
2023/01/26 03:08:52;;;;;;;1999.90;999.90;;;1.30;99.90;;;;;;4992230;28;20488;-67
2023/01/26 03:11:19;;;;;;;1999.90;999.90;;;1.20;99.90;;;;;;4992141;28;20458;-66
2023/01/26 03:13:47;;;;;;;1999.90;999.90;;;1.20;99.90;;;;;;4991771;28;20457;-67
2023/01/26 03:16:17;;;;;;;1999.90;999.90;;;1.10;99.90;;;;;;4992159;28;20451;-67
2023/01/26 03:29:43;;;;;;;1999.90;999.90;;;1.10;99.90;;;;;;5010832;28;20441;-67
2023/01/26 03:32:10;;;;;;;1999.90;999.90;;;1.10;99.90;;;;;;5011613;28;20812;-67
2023/01/26 03:34:37;;;;;;;1999.90;999.90;;;1.10;99.90;;;;;;5009161;28;20478;-67
2023/01/26 03:37:03;;;;;;;1999.90;999.90;;;1.10;99.90;;;;;;5011204;28;20448;-67
2023/01/26 03:56:17;;;;;;;1999.90;999.90;;;1.20;99.90;;;;;;5010904;28;20499;-67
2023/01/26 03:58:44;;;;;;;1999.90;999.90;;;1.20;99.90;;;;;;5010641;28;20444;-67
2023/01/26 04:01:18;;;;;;;1999.90;999.90;;;1.20;99.90;;;;;;4999140;28;20845;-67
2023/01/26 04:09:15;;;;;;;1999.90;999.90;;;1.20;99.90;;;;;;5010804;28;20476;-66
2023/01/26 04:11:42;;;;;;;1999.90;999.90;;;1.20;99.90;;;;;;5010391;28;21153;-67
2023/01/26 04:22:26;;;;;;;1999.90;999.90;;;1.00;99.90;;;;;;4990522;28;21011;-67
2023/01/26 04:24:52;;;;;;;1999.90;999.90;;;1.00;99.90;;;;;;4991182;28;20475;-67
2023/01/26 04:27:19;;;;;;;1999.90;999.90;;;1.00;99.90;;;;;;4991003;28;20457;-67
2023/01/26 04:29:46;;;;;;;1999.90;999.90;;;1.00;99.90;;;;;;4990995;28;20852;-67
2023/01/26 04:32:14;;;;;;;1999.90;999.90;;;1.00;99.90;;;;;;5006655;28;20971;-67
2023/01/26 04:34:41;;;;;;;1999.90;999.90;;;1.00;99.90;;;;;;5010125;28;20999;-67
2023/01/26 04:37:09;;;;;;;1999.90;999.90;;;1.00;99.90;;;;;;5009994;28;20466;-67
2023/01/26 04:39:35;;;;;;;1999.90;999.90;;;1.00;99.90;;;;;;5010111;28;20816;-67
2023/01/26 04:42:02;;;;;;;1999.90;999.90;;;1.00;99.90;;;;;;5010257;28;20979;-67
2023/01/26 04:44:29;;;;;;;1999.90;999.90;;;1.00;99.90;;;;;;5009664;28;20466;-67
2023/01/26 04:46:56;;;;;;;1999.90;999.90;;;1.00;99.90;;;;;;5007800;28;20453;-67
2023/01/26 04:49:24;;;;;;;1999.90;999.90;;;1.00;99.90;;;;;;4998559;28;20485;-67
2023/01/26 04:51:51;;;;;;;1999.90;999.90;;;1.00;99.90;;;;;;5010147;28;20446;-67
2023/01/26 04:54:18;;;;;;;1999.90;999.90;;;0.90;99.90;;;;;;5009830;28;20474;-67
2023/01/26 04:56:45;;;;;;;1999.90;999.90;;;0.90;99.90;;;;;;5009421;28;20806;-67
2023/01/26 04:59:12;;;;;;;1999.90;999.90;;;0.90;99.90;;;;;;5010045;28;20825;-67
2023/01/26 05:01:38;;;;;;;1999.90;999.90;;;0.90;99.90;;;;;;5009553;28;20445;-66
2023/01/26 05:04:06;;;;;;;1999.90;999.90;;;0.90;99.90;;;;;;5009248;28;20481;-69
2023/01/26 05:06:34;;;;;;;1999.90;999.90;;;0.90;99.90;;;;;;4996742;28;20458;-68
2023/01/26 05:09:01;;;;;;;1999.90;999.90;;;0.90;99.90;;;;;;4995287;28;20478;-67
2023/01/26 05:11:28;;;;;;;1999.90;999.90;;;0.90;99.90;;;;;;4995801;28;20470;-67
2023/01/26 05:13:54;;;;;;;1999.90;999.90;;;0.80;99.90;;;;;;4992670;28;20478;-66
2023/01/26 05:16:21;;;;;;;1999.90;999.90;;;0.80;99.90;;;;;;5022500;28;20978;-66
2023/01/26 05:18:48;;;;;;;1999.90;999.90;;;0.80;99.90;;;;;;4989280;28;20450;-66
2023/01/26 05:21:15;;;;;;;1999.90;999.90;;;0.90;99.90;;;;;;4992289;28;20455;-65
2023/01/26 05:23:43;;;;;;;1999.90;999.90;;;0.90;99.90;;;;;;4992723;28;20455;-67
2023/01/26 05:26:09;;;;;;;1999.90;999.90;;;0.90;99.90;;;;;;5012739;28;20460;-66
2023/01/26 05:28:36;;;;;;;1999.90;999.90;;;0.80;99.90;;;;;;5005990;28;20478;-67
2023/01/26 05:31:03;;;;;;;1999.90;999.90;;;0.80;99.90;;;;;;4994729;28;20447;-66
2023/01/26 05:33:30;;;;;;;1999.90;999.90;;;0.80;99.90;;;;;;4993806;28;20450;-66
2023/01/26 05:35:57;;;;;;;1999.90;999.90;;;0.80;99.90;;;;;;5005157;28;20450;-66
2023/01/26 05:38:25;;;;;;;1999.90;999.90;;;0.80;99.90;;;;;;5013234;28;20526;-68
2023/01/26 05:40:53;;;;;;;1999.90;999.90;;;0.90;99.90;;;;;;5010378;28;20518;-67
2023/01/26 05:43:19;;;;;;;1999.90;999.90;;;0.80;99.90;;;;;;4992099;28;20450;-66
2023/01/26 05:45:46;;;;;;;1999.90;999.90;;;0.80;99.90;;;;;;4992060;28;20513;-68
2023/01/26 05:48:13;;;;;;;1999.90;999.90;;;0.80;99.90;;;;;;4991794;28;20486;-68
2023/01/26 05:50:40;;;;;;;1999.90;999.90;;;0.80;99.90;;;;;;4991679;28;20449;-68
2023/01/26 05:53:07;;;;;;;1999.90;999.90;;;0.80;99.90;;;;;;4992189;28;20977;-69
2023/01/26 05:55:33;;;;;;;1999.90;999.90;;;0.80;99.90;;;;;;4991588;28;21196;-66
2023/01/26 05:58:01;;;;;;;1999.90;999.90;;;0.80;99.90;;;;;;4992503;28;20461;-67
2023/01/26 06:00:28;;;;;;;1999.90;999.90;;;0.80;99.90;;;;;;4993933;28;21190;-67
2023/01/26 06:02:55;;;;;;;1999.90;999.90;;;0.80;99.90;;;;;;4998911;28;20449;-69
2023/01/26 06:05:22;;;;;;;1999.90;999.90;;;0.90;99.90;;;;;;5007297;28;20476;-69
2023/01/26 06:07:48;;;;;;;1999.90;999.90;;;0.90;99.90;;;;;;5005514;28;20454;-68
2023/01/26 06:10:16;;;;;;;1999.90;999.90;;;0.90;99.90;;;;;;4991318;28;21004;-69
2023/01/26 06:12:42;;;;;;;1999.90;999.90;;;0.90;99.90;;;;;;4989529;28;20461;-67
2023/01/26 06:15:12;;;;;;;1999.90;999.90;;;0.90;99.90;;;;;;5006041;28;20561;-70
2023/01/26 06:17:39;;;;;;;1999.90;999.90;;;0.80;99.90;;;;;;4999848;28;20824;-67
2023/01/26 06:20:08;;;;;;;1999.90;999.90;;;0.80;99.90;;;;;;4992216;28;20439;-68
2023/01/26 06:22:35;;;;;;;1999.90;999.90;;;0.80;99.90;;;;;;5000029;28;20449;-68
2023/01/26 06:25:02;;;;;;;1999.90;999.90;;;0.80;99.90;;;;;;5013749;28;20484;-68
2023/01/26 06:27:28;;;;;;;1999.90;999.90;;;0.80;99.90;;;;;;5013123;28;20824;-67
2023/01/26 06:29:55;;;;;;;1999.90;999.90;;;0.70;99.90;;;;;;5013580;28;20488;-68
2023/01/26 06:32:24;;;;;;;1999.90;999.90;;;0.80;99.90;;;;;;5014058;28;20877;-68
2023/01/26 06:34:52;;;;;;;1999.90;999.90;;;0.80;99.90;;;;;;5014174;28;20536;-67
2023/01/26 06:37:18;;;;;;;1999.90;999.90;;;0.80;99.90;;;;;;5007685;28;20457;-70
2023/01/26 06:39:45;;;;;;;1999.90;999.90;;;0.80;99.90;;;;;;4994527;28;20461;-69
2023/01/26 06:42:12;;;;;;;1999.90;999.90;;;0.80;99.90;;;;;;4993950;28;20454;-69
2023/01/26 06:44:39;;;;;;;1999.90;999.90;;;0.80;99.90;;;;;;4993871;28;20470;-69
2023/01/26 06:47:06;;;;;;;1999.90;999.90;;;0.70;99.90;;;;;;4997822;28;20449;-70
2023/01/26 06:49:34;;;;;;;1999.90;999.90;;;0.70;99.90;;;;;;5013155;28;20485;-68
2023/01/26 06:52:05;;;;;;;1999.90;999.90;;;0.70;99.90;;;;;;5013491;28;21111;-68
2023/01/26 06:54:31;;;;;;;1999.90;999.90;;;0.80;99.90;;;;;;5013018;28;20470;-69
2023/01/26 06:56:58;;;;;;;1999.90;999.90;;;0.70;99.90;;;;;;5013192;28;20461;-69
2023/01/26 06:59:25;;;;;;;1999.90;999.90;;;0.70;99.90;;;;;;5013112;28;20441;-68
2023/01/26 07:01:52;;;;;;;1999.90;999.90;;;0.70;99.90;;;;;;5013320;28;20454;-69
2023/01/26 07:04:18;;;;;;;1999.90;999.90;;;0.70;99.90;;;;;;5012745;28;20465;-70
2023/01/26 07:06:47;;;;;;;1999.90;999.90;;;0.70;99.90;;;;;;5012373;28;20453;-67
2023/01/26 07:09:13;;;;;;;1999.90;999.90;;;0.70;99.90;;;;;;5012001;28;20473;-68
2023/01/26 07:11:40;;;;;;;1999.90;999.90;;;0.80;99.90;;;;;;5002367;28;20465;-68
2023/01/26 07:14:07;;;;;;;1999.90;999.90;;;0.80;99.90;;;;;;5011467;28;20473;-67
2023/01/26 07:16:34;;;;;;;1999.90;999.90;;;0.80;99.90;;;;;;5013970;28;20446;-67
2023/01/26 07:19:01;;;;;;;1999.90;999.90;;;0.80;99.90;;;;;;5013723;28;20446;-68
2023/01/26 07:21:27;;;;;;;1999.90;999.90;;;0.80;99.90;;;;;;5013455;28;20457;-67
2023/01/26 07:23:56;;;;;;;1999.90;999.90;;;0.70;99.90;;;;;;5011834;28;20469;-67
2023/01/26 07:26:23;;;;;;;1999.90;999.90;;;0.70;99.90;;;;;;5013060;28;20960;-67
2023/01/26 07:28:50;;;;;;;1999.90;999.90;;;0.70;99.90;;;;;;5011147;28;20755;-67
2023/01/26 07:31:17;;;;;;;1999.90;999.90;;;0.80;99.90;;;;;;5011986;28;20816;-68
2023/01/26 07:33:43;;;;;;;1999.90;999.90;;;0.80;99.90;;;;;;5012543;28;20450;-67
2023/01/26 07:36:10;;;;;;;1999.90;999.90;;;0.80;99.90;;;;;;5012891;28;20446;-68
2023/01/26 07:38:37;;;;;;;1999.90;999.90;;;0.80;99.90;;;;;;5013166;28;20450;-67
2023/01/26 07:41:08;;;;;;;1999.90;999.90;;;0.70;99.90;;;;;;5013020;28;20450;-67
2023/01/26 07:43:35;;;;;;;1999.90;999.90;;;0.70;99.90;;;;;;5012776;28;20457;-68
2023/01/26 07:46:02;;;;;;;1999.90;999.90;;;0.60;99.90;;;;;;5012657;28;20461;-68
2023/01/26 07:48:29;;;;;;;1999.90;999.90;;;0.60;99.90;;;;;;5012674;28;20456;-68
2023/01/26 07:50:59;;;;;;;1999.90;999.90;;;0.60;99.90;;;;;;5012460;28;20437;-67
2023/01/26 07:53:28;;;;;;;1999.90;999.90;;;0.60;99.90;;;;;;5012082;28;20928;-67
2023/01/26 07:55:56;;;;;;;1999.90;999.90;;;0.60;99.90;;;;;;5012227;28;20469;-67
2023/01/26 07:58:24;;;;;;;1999.90;999.90;;;0.60;99.90;;;;;;5012994;28;20445;-67
2023/01/26 08:00:50;;;;;;;1999.90;999.90;;;0.60;99.90;;;;;;5012804;28;20967;-67
2023/01/26 08:03:17;;;;;;;1999.90;999.90;;;0.60;99.90;;;;;;5012864;28;20450;-67
2023/01/26 08:05:46;;;;;;;1999.90;999.90;;;0.80;99.90;;;;;;5012792;28;20474;-68
2023/01/26 08:08:12;;;;;;;1999.90;999.90;;;0.90;99.90;;;;;;5012957;28;20454;-68
2023/01/26 08:10:39;;;;;;;1999.90;999.90;;;0.90;99.90;;;;;;5010321;28;22720;-68
2023/01/26 08:13:06;;;;;;;1999.90;999.90;;;1.00;99.90;;;;;;5010895;28;20445;-68
2023/01/26 08:15:34;;;;;;;1999.90;999.90;;;1.00;99.90;;;;;;5014201;28;20466;-68
2023/01/26 08:18:02;;;;;;;1999.90;999.90;;;1.20;99.90;;;;;;5013709;28;20446;-68
2023/01/26 08:20:29;;;;;;;1999.90;999.90;;;1.20;99.90;;;;;;5014691;28;20442;-68
2023/01/26 08:22:56;;;;;;;1999.90;999.90;;;1.20;99.90;;;;;;5014025;28;20446;-68
2023/01/26 08:25:23;;;;;;;1999.90;999.90;;;1.20;99.90;;;;;;5015155;28;20470;-67
2023/01/26 08:27:49;;;;;;;1999.90;999.90;;;1.10;99.90;;;;;;5007474;28;20454;-69
2023/01/26 08:30:17;;;;;;;1999.90;999.90;;;1.10;99.90;;;;;;5011154;28;20477;-68
2023/01/26 08:32:45;;;;;;;1999.90;999.90;;;1.20;99.90;;;;;;5011896;28;20503;-68
2023/01/26 08:35:12;;;;;;;1999.90;999.90;;;1.20;99.90;;;;;;5013759;28;20474;-68
2023/01/26 08:37:39;;;;;;;1999.90;999.90;;;1.30;99.90;;;;;;5011770;28;20450;-69
2023/01/26 08:40:07;;;;;;;1999.90;999.90;;;1.40;99.90;;;;;;5012130;28;20446;-68
2023/01/26 08:42:33;;;;;;;1999.90;999.90;;;1.50;99.90;;;;;;5012052;28;20457;-68
2023/01/26 08:45:00;;;;;;;1999.90;999.90;;;1.40;99.90;;;;;;5011681;28;20488;-67
2023/01/26 08:47:27;;;;;;;1999.90;999.90;;;1.40;99.90;;;;;;5013115;28;20511;-69
2023/01/26 08:49:55;;;;;;;1999.90;999.90;;;1.40;99.90;;;;;;5007598;28;20486;-70
2023/01/26 08:52:22;;;;;;;1999.90;999.90;;;1.50;99.90;;;;;;5003499;28;20450;-70
2023/01/26 08:54:48;;;;;;;1999.90;999.90;;;1.50;99.90;;;;;;5010073;28;20470;-71
2023/01/26 08:57:15;;;;;;;1999.90;999.90;;;1.50;99.90;;;;;;5011765;28;20457;-69
2023/01/26 08:59:42;;;;;;;1999.90;999.90;;;1.40;99.90;;;;;;5011663;28;20454;-69
2023/01/26 09:02:09;;;;;;;1999.90;999.90;;;1.40;99.90;;;;;;5012592;28;20475;-70
2023/01/26 09:04:36;;;;;;;1999.90;999.90;;;1.40;99.90;;;;;;5012377;28;20469;-70
2023/01/26 09:07:04;;;;;;;1999.90;999.90;;;1.40;99.90;;;;;;5009509;28;20458;-69
2023/01/26 09:09:31;;;;;;;1999.90;999.90;;;1.30;99.90;;;;;;5006339;28;20483;-70
2023/01/26 09:11:58;;;;;;;1999.90;999.90;;;1.20;99.90;;;;;;5011563;28;20533;-67
2023/01/26 09:14:26;;;;;;;1999.90;999.90;;;1.20;99.90;;;;;;5011904;28;20476;-68
2023/01/26 09:16:53;;;;;;;1999.90;999.90;;;1.20;99.90;;;;;;5013598;28;20450;-69
2023/01/26 09:19:19;;;;;;;1999.90;999.90;;;1.20;99.90;;;;;;5011365;28;20446;-68
2023/01/26 09:21:46;;;;;;;1999.90;999.90;;;1.20;99.90;;;;;;5011080;28;20456;-68
2023/01/26 09:24:14;;;;;;;1999.90;999.90;;;1.20;99.90;;;;;;5010881;28;20469;-68
2023/01/26 09:26:41;;;;;;;1999.90;999.90;;;1.20;99.90;;;;;;5011903;28;20451;-67
2023/01/26 09:29:08;;;;;;;1999.90;999.90;;;1.10;99.90;;;;;;5010998;28;20484;-67
2023/01/26 09:31:34;;;;;;;1999.90;999.90;;;1.10;99.90;;;;;;5011005;28;20833;-67
2023/01/26 09:34:01;;;;;;;1999.90;999.90;;;1.10;99.90;;;;;;5010246;28;20962;-68
2023/01/26 09:36:28;;;;;;;1999.90;999.90;;;1.10;99.90;;;;;;5010114;28;20449;-66
2023/01/26 09:38:55;;;;;;;1999.90;999.90;;;1.10;99.90;;;;;;5009786;28;20450;-68
2023/01/26 09:41:43;;;;;;;1999.90;999.90;;;1.10;99.90;;;;;;5010015;28;20509;-69
2023/01/26 09:44:13;;;;;;;1999.90;999.90;;;1.10;99.90;;;;;;5009715;28;20469;-73
2023/01/26 09:46:49;;;;;;;1999.90;999.90;;;1.10;99.90;;;;;;5010399;28;20450;-74
2023/01/26 09:49:20;;;;;;;1999.90;999.90;;;1.20;99.90;;;;;;5009469;28;20445;-74
2023/01/26 09:51:54;;;;;;;1999.90;999.90;;;1.20;99.90;;;;;;5009481;28;20456;-71
2023/01/26 09:54:27;;;;;;;1999.90;999.90;;;1.20;99.90;;;;;;5008541;28;20485;-71
2023/01/26 09:56:56;;;;;;;1999.90;999.90;;;1.20;99.90;;;;;;5009252;28;20457;-71
2023/01/26 09:59:30;;;;;;;1999.90;999.90;;;1.20;99.90;;;;;;5009322;28;20450;-71
2023/01/26 10:02:05;;;;;;;1999.90;999.90;;;1.20;99.90;;;;;;5009374;28;20831;-70
2023/01/26 10:04:36;;;;;;;1999.90;999.90;;;1.10;99.90;;;;;;5009007;28;20508;-72
2023/01/26 10:07:08;;;;;;;1999.90;999.90;;;1.10;99.90;;;;;;5009725;28;20453;-71
2023/01/26 10:09:38;;;;;;;1999.90;999.90;;;1.00;99.90;;;;;;5009817;28;20485;-70
2023/01/26 10:12:08;;;;;;;1999.90;999.90;;;1.00;99.90;;;;;;5009574;28;20841;-70
2023/01/26 10:14:39;;;;;;;1999.90;999.90;;;1.00;99.90;;;;;;5009857;28;20472;-71
2023/01/26 10:17:14;;;;;;;1999.90;999.90;;;0.90;99.90;;;;;;5009704;28;20430;-71
2023/01/26 10:19:45;;;;;;;1999.90;999.90;;;1.00;99.90;;;;;;5009787;28;20450;-71
2023/01/26 10:22:15;;;;;;;1999.90;999.90;;;0.90;99.90;;;;;;5009841;28;20460;-72
2023/01/26 10:24:44;;;;;;;1999.90;999.90;;;0.90;99.90;;;;;;5009279;28;20483;-72
2023/01/26 10:27:13;;;;;;;1999.90;999.90;;;0.90;99.90;;;;;;5009202;28;20454;-72
2023/01/26 10:29:40;;;;;;;1999.90;999.90;;;1.00;99.90;;;;;;5008973;28;21175;-72
2023/01/26 10:32:13;;;;;;;1999.90;999.90;;;1.10;99.90;;;;;;5009470;28;20461;-72
2023/01/26 10:34:41;;;;;;;1999.90;999.90;;;1.10;99.90;;;;;;5004293;28;20474;-72
2023/01/26 10:37:20;;;;;;;1999.90;999.90;;;1.00;99.90;;;;;;5007338;28;20481;-72
2023/01/26 10:39:58;;;;;;;1999.90;999.90;;;1.00;99.90;;;;;;5009067;28;20449;-72
2023/01/26 10:42:29;;;;;;;1999.90;999.90;;;1.00;99.90;;;;;;5009611;28;20479;-71
2023/01/26 10:44:56;;;;;;;1999.90;999.90;;;0.90;99.90;;;;;;5008914;28;20473;-72
2023/01/26 10:47:24;;;;;;;1999.90;999.90;;;1.00;99.90;;;;;;5009083;28;20971;-71
2023/01/26 10:49:51;;;;;;;1999.90;999.90;;;1.00;99.90;;;;;;5008938;28;20477;-72
2023/01/26 10:52:20;;;;;;;1999.90;999.90;;;1.00;99.90;;;;;;5009117;28;20469;-71
2023/01/26 10:54:48;;;;;;;1999.90;999.90;;;1.00;99.90;;;;;;5009492;28;20477;-69
2023/01/26 10:57:24;;;;;;;1999.90;999.90;;;1.10;99.90;;;;;;5009118;28;20465;-71
2023/01/26 10:59:55;;;;;;;1999.90;999.90;;;1.10;99.90;;;;;;5009022;28;20449;-71
2023/01/26 11:02:26;;;;;;;1999.90;999.90;;;1.10;99.90;;;;;;5008708;28;20446;-70
2023/01/26 11:05:19;;;;;;;1999.90;999.90;;;1.10;99.90;;;;;;5008905;28;21118;-72
2023/01/26 11:07:48;;;;;;;1999.90;999.90;;;1.00;99.90;;;;;;5012115;28;20449;-71
2023/01/26 11:10:22;;;;;;;1999.90;999.90;;;1.00;99.90;;;;;;5012183;28;20481;-69
2023/01/26 11:12:49;;;;;;;1999.90;999.90;;;1.10;99.90;;;;;;5011807;28;20450;-70
2023/01/26 11:15:19;;;;;;;1999.90;999.90;;;1.10;99.90;;;;;;5011963;28;20468;-69
2023/01/26 11:17:54;;;;;;;1999.90;999.90;;;1.10;99.90;;;;;;5011769;28;20935;-70
2023/01/26 11:20:44;;;;;;;1999.90;999.90;;;1.10;99.90;;;;;;5012147;28;20437;-70
2023/01/26 11:23:26;;;;;;;1999.90;999.90;;;1.10;99.90;;;;;;5011504;28;20450;-70
2023/01/26 11:26:15;;;;;;;1999.90;999.90;;;1.20;99.90;;;;;;5011663;28;20472;-70
2023/01/26 11:28:57;;;;;;;1999.90;999.90;;;1.20;99.90;;;;;;5008376;28;20908;-71
2023/01/26 11:31:34;;;;;;;1999.90;999.90;;;1.20;99.90;;;;;;5005934;28;21060;-70
2023/01/26 11:34:11;;;;;;;1999.90;999.90;;;1.30;99.90;;;;;;5002494;28;20478;-70
2023/01/26 11:36:47;;;;;;;1999.90;999.90;;;1.30;99.90;;;;;;4995863;28;20454;-69
2023/01/26 11:39:23;;;;;;;1999.90;999.90;;;1.20;99.90;;;;;;4991798;28;20956;-70
2023/01/26 11:42:01;;;;;;;1999.90;999.90;;;1.20;99.90;;;;;;5000689;28;20473;-70
2023/01/26 11:44:45;;;;;;;1999.90;999.90;;;1.20;99.90;;;;;;5024586;28;20862;-71
2023/01/26 11:47:24;;;;;;;1999.90;999.90;;;1.10;99.90;;;;;;5007922;28;20471;-71
2023/01/26 11:50:04;;;;;;;1999.90;999.90;;;1.10;99.90;;;;;;4998925;28;20838;-71
2023/01/26 11:52:36;;;;;;;1999.90;999.90;;;1.10;99.90;;;;;;5005583;28;20452;-71
2023/01/26 11:55:22;;;;;;;1999.90;999.90;;;1.10;99.90;;;;;;5002671;28;20493;-71
2023/01/26 11:58:13;;;;;;;1999.90;999.90;;;1.00;99.90;;;;;;5005235;28;20833;-71
2023/01/26 12:00:43;;;;;;;1999.90;999.90;;;1.00;99.90;;;;;;5003098;28;20809;-71
2023/01/26 12:03:20;;;;;;;1999.90;999.90;;;1.00;99.90;;;;;;5004131;28;20446;-70
2023/01/26 12:05:51;;;;;;;1999.90;999.90;;;1.00;99.90;;;;;;5003180;28;20469;-71
2023/01/26 12:08:24;;;;;;;1999.90;999.90;;;1.00;99.90;;;;;;5001710;28;20446;-71
2023/01/26 12:13:50;;;;;;;1999.90;999.90;;;0.90;99.90;;;;;;5008158;28;20528;-71
2023/01/26 12:16:20;;;;;;;1999.90;999.90;;;0.90;99.90;;;;;;5010658;28;20446;-71
2023/01/26 12:18:59;;;;;;;1999.90;999.90;;;1.00;99.90;;;;;;5010384;28;20461;-68
2023/01/26 12:21:28;;;;;;;1999.90;999.90;;;1.00;99.90;;;;;;4999408;28;20445;-70
2023/01/26 12:24:01;;;;;;;1999.90;999.90;;;1.10;99.90;;;;;;5002855;28;20466;-70
2023/01/26 12:26:32;;;;;;;1999.90;999.90;;;1.00;99.90;;;;;;5003714;28;20442;-70
2023/01/26 12:29:08;;;;;;;1999.90;999.90;;;1.00;99.90;;;;;;5009131;28;20441;-70
2023/01/26 12:31:43;;;;;;;1999.90;999.90;;;1.00;99.90;;;;;;5009439;28;20492;-70
2023/01/26 12:34:13;;;;;;;1999.90;999.90;;;0.90;99.90;;;;;;5007954;28;20479;-70
2023/01/26 12:36:48;;;;;;;1999.90;999.90;;;0.90;99.90;;;;;;4998263;28;20442;-70
2023/01/26 12:39:21;;;;;;;1999.90;999.90;;;0.90;99.90;;;;;;4990632;28;20847;-71
2023/01/26 12:42:06;;;;;;;1999.90;999.90;;;1.00;99.90;;;;;;5005039;28;20446;-71
2023/01/26 12:44:40;;;;;;;1999.90;999.90;;;1.00;99.90;;;;;;5004454;28;20814;-71
2023/01/26 12:47:13;;;;;;;1999.90;999.90;;;1.10;99.90;;;;;;5000083;28;20454;-71
2023/01/26 12:49:48;;;;;;;1999.90;999.90;;;1.20;99.90;;;;;;5003625;28;20446;-70
2023/01/26 12:52:22;;;;;;;1999.90;999.90;;;1.20;99.90;;;;;;4990634;28;20484;-69
2023/01/26 12:54:55;;;;;;;1999.90;999.90;;;1.20;99.90;;;;;;4993692;28;20462;-71
2023/01/26 12:57:26;;;;;;;1999.90;999.90;;;1.30;99.90;;;;;;4996284;28;20446;-68
2023/01/26 12:59:53;;;;;;;1999.90;999.90;;;1.30;99.90;;;;;;4995267;28;20451;-71
2023/01/26 13:02:28;;;;;;;1999.90;999.90;;;1.30;99.90;;;;;;5005622;28;20449;-69
2023/01/26 13:04:58;;;;;;;1999.90;999.90;;;1.20;99.90;;;;;;4993713;28;20463;-69
2023/01/26 13:07:33;;;;;;;1999.90;999.90;;;1.20;99.90;;;;;;5002994;28;20544;-69
2023/01/26 13:10:22;;;;;;;1999.90;999.90;;;1.20;99.90;;;;;;5001959;28;20469;-70